createdAt,value
2017-11-05T00:00:00.606Z,0
2017-11-05T00:01:10.013Z,0
2017-11-05T00:02:19.811Z,0
2017-11-05T00:03:29.898Z,0
2017-11-05T00:04:38.925Z,0
2017-11-05T00:05:48.723Z,0
2017-11-05T00:06:58.915Z,0
2017-11-05T00:08:09.320Z,0
2017-11-05T00:09:19.454Z,0
2017-11-05T00:10:29.508Z,0
2017-11-05T00:11:39.215Z,0
2017-11-05T00:12:49.602Z,0
2017-11-05T00:13:59.956Z,0
2017-11-05T00:15:09.676Z,0
2017-11-05T00:16:19.386Z,0
2017-11-05T00:17:29.420Z,0
2017-11-05T00:18:39.778Z,0
2017-11-05T00:19:49.839Z,0
2017-11-05T00:20:59.875Z,0
2017-11-05T00:22:09.591Z,0
2017-11-05T00:23:19.977Z,0
2017-11-05T00:24:30.077Z,0
2017-11-05T00:25:39.925Z,0
2017-11-05T00:26:49.753Z,0
2017-11-05T00:27:59.787Z,0
2017-11-05T00:29:09.471Z,0
2017-11-05T00:30:19.836Z,0
2017-11-05T00:31:29.530Z,0
2017-11-05T00:32:39.228Z,0
2017-11-05T00:33:48.912Z,0
2017-11-05T00:34:58.265Z,0
2017-11-05T00:36:06.948Z,0
2017-11-05T00:37:16.635Z,0
2017-11-05T00:38:27.017Z,0
2017-11-05T00:39:37.379Z,0
2017-11-05T00:40:47.775Z,0
2017-11-05T00:41:57.449Z,0
2017-11-05T00:43:07.152Z,0
2017-11-05T00:44:16.828Z,0
2017-11-05T00:45:25.506Z,0
2017-11-05T00:46:34.860Z,0
2017-11-05T00:47:44.892Z,0
2017-11-05T00:48:55.259Z,0
2017-11-05T00:50:05.278Z,0
2017-11-05T00:51:14.971Z,0
2017-11-05T00:52:24.660Z,0
2017-11-05T00:53:34.345Z,0
2017-11-05T00:54:44.386Z,0
2017-11-05T00:55:54.430Z,0
2017-11-05T00:57:04.481Z,0
2017-11-05T00:58:14.174Z,0
2017-11-05T00:59:23.880Z,0
2017-11-05T01:00:33.578Z,0
2017-11-05T01:01:43.272Z,0
2017-11-05T01:02:53.635Z,0
2017-11-05T01:04:03.331Z,0
2017-11-05T01:05:13.843Z,0
2017-11-05T01:06:23.251Z,0
2017-11-05T01:07:32.596Z,0
2017-11-05T01:08:41.950Z,0
2017-11-05T01:09:51.637Z,0
2017-11-05T01:11:01.344Z,0
2017-11-05T01:12:11.026Z,0
2017-11-05T01:13:21.061Z,0
2017-11-05T01:14:30.075Z,0
2017-11-05T01:15:39.092Z,0
2017-11-05T01:16:49.123Z,0
2017-11-05T01:17:58.806Z,0
2017-11-05T01:19:08.852Z,0
2017-11-05T01:20:18.204Z,0
2017-11-05T01:21:28.581Z,0
2017-11-05T01:22:37.933Z,0
2017-11-05T01:23:48.296Z,0
2017-11-05T01:24:58.658Z,0
2017-11-05T01:26:08.377Z,0
2017-11-05T01:27:18.413Z,0
2017-11-05T01:28:28.128Z,0
2017-11-05T01:29:38.155Z,0
2017-11-05T01:30:47.866Z,0
2017-11-05T01:31:57.393Z,0
2017-11-05T01:33:07.184Z,0
2017-11-05T01:34:17.684Z,0
2017-11-05T01:35:27.423Z,0
2017-11-05T01:36:37.603Z,0
2017-11-05T01:37:47.780Z,0
2017-11-05T01:38:57.896Z,0
2017-11-05T01:40:07.913Z,0
2017-11-05T01:41:17.988Z,0
2017-11-05T01:42:26.785Z,0
2017-11-05T01:43:36.645Z,0
2017-11-05T01:44:46.710Z,0
2017-11-05T01:45:56.144Z,0
2017-11-05T01:47:06.248Z,0
2017-11-05T01:48:15.362Z,0
2017-11-05T01:49:25.118Z,0
2017-11-05T01:50:34.511Z,0
2017-11-05T01:51:44.604Z,0
2017-11-05T01:52:54.447Z,0
2017-11-05T01:54:04.589Z,0
2017-11-05T01:55:14.310Z,0
2017-11-05T01:56:23.731Z,0
2017-11-05T01:57:33.523Z,0
2017-11-05T01:58:43.589Z,0
2017-11-05T01:59:53.368Z,0
2017-11-05T02:01:02.731Z,0
2017-11-05T02:02:12.444Z,0
2017-11-05T02:03:22.542Z,0
2017-11-05T02:04:32.263Z,0
2017-11-05T02:05:42.402Z,0
2017-11-05T02:06:52.844Z,0
2017-11-05T02:08:02.818Z,0
2017-11-05T02:09:13.227Z,0
2017-11-05T02:10:22.969Z,0
2017-11-05T02:11:33.130Z,0
2017-11-05T02:12:43.313Z,0
2017-11-05T02:13:53.458Z,0
2017-11-05T02:15:03.505Z,0
2017-11-05T02:16:13.890Z,0
2017-11-05T02:17:23.929Z,0
2017-11-05T02:18:32.978Z,0
2017-11-05T02:19:43.358Z,0
2017-11-05T02:20:52.448Z,0
2017-11-05T02:22:02.545Z,0
2017-11-05T02:23:11.597Z,0
2017-11-05T02:24:22.104Z,0
2017-11-05T02:25:32.647Z,0
2017-11-05T02:26:42.854Z,0
2017-11-05T02:27:53.344Z,0
2017-11-05T02:29:02.739Z,0
2017-11-05T02:30:12.627Z,0
2017-11-05T02:31:22.083Z,0
2017-11-05T02:32:31.823Z,0
2017-11-05T02:33:41.571Z,0
2017-11-05T02:34:51.364Z,0
2017-11-05T02:36:01.150Z,0
2017-11-05T02:37:11.674Z,0
2017-11-05T02:38:21.765Z,0
2017-11-05T02:39:34.184Z,0
2017-11-05T02:40:44.659Z,0
2017-11-05T02:41:54.522Z,0
2017-11-05T02:43:04.276Z,0
2017-11-05T02:44:14.787Z,0
2017-11-05T02:45:25.008Z,0
2017-11-05T02:46:34.443Z,0
2017-11-05T02:47:44.534Z,0
2017-11-05T02:48:54.631Z,0
2017-11-05T02:50:04.717Z,0
2017-11-05T02:51:15.199Z,0
2017-11-05T02:52:25.263Z,0
2017-11-05T02:53:35.014Z,0
2017-11-05T02:54:45.040Z,0
2017-11-05T02:55:55.402Z,0
2017-11-05T02:57:05.485Z,0
2017-11-05T02:58:15.527Z,0
2017-11-05T02:59:26.013Z,0
2017-11-05T03:00:36.160Z,0
2017-11-05T03:01:46.278Z,0
2017-11-05T03:02:55.691Z,0
2017-11-05T03:04:05.762Z,0
2017-11-05T03:05:14.885Z,0
2017-11-05T03:06:24.614Z,0
2017-11-05T03:07:34.678Z,0
2017-11-05T03:08:44.380Z,0
2017-11-05T03:09:54.152Z,0
2017-11-05T03:11:03.579Z,0
2017-11-05T03:12:13.293Z,0
2017-11-05T03:13:23.132Z,0
2017-11-05T03:14:33.338Z,0
2017-11-05T03:15:42.440Z,0
2017-11-05T03:16:52.558Z,0
2017-11-05T03:18:01.997Z,0
2017-11-05T03:19:11.686Z,0
2017-11-05T03:20:21.453Z,0
2017-11-05T03:21:31.565Z,0
2017-11-05T03:22:41.429Z,0
2017-11-05T03:23:51.301Z,0
2017-11-05T03:25:00.793Z,0
2017-11-05T03:26:10.230Z,0
2017-11-05T03:27:19.670Z,0
2017-11-05T03:28:29.464Z,0
2017-11-05T03:29:39.377Z,0
2017-11-05T03:30:49.546Z,0
2017-11-05T03:31:59.769Z,0
2017-11-05T03:33:09.560Z,0
2017-11-05T03:34:20.073Z,0
2017-11-05T03:35:29.515Z,0
2017-11-05T03:36:39.719Z,0
2017-11-05T03:37:49.810Z,0
2017-11-05T03:39:00.319Z,0
2017-11-05T03:40:10.178Z,0
2017-11-05T03:41:20.060Z,0
2017-11-05T03:42:30.175Z,0
2017-11-05T03:43:40.296Z,0
2017-11-05T03:44:50.842Z,0
2017-11-05T03:46:01.316Z,0
2017-11-05T03:47:11.154Z,0
2017-11-05T03:48:21.380Z,0
2017-11-05T03:49:31.155Z,0
2017-11-05T03:50:41.705Z,0
2017-11-05T03:51:51.525Z,0
2017-11-05T03:53:01.298Z,0
2017-11-05T03:54:11.458Z,0
2017-11-05T03:55:21.299Z,0
2017-11-05T03:56:31.145Z,0
2017-11-05T03:57:40.314Z,0
2017-11-05T03:58:50.374Z,0
2017-11-05T03:59:59.853Z,0
2017-11-05T04:01:09.871Z,0
2017-11-05T04:02:19.080Z,0
2017-11-05T04:03:28.835Z,0
2017-11-05T04:04:38.955Z,0
2017-11-05T04:05:49.178Z,0
2017-11-05T04:06:59.713Z,0
2017-11-05T04:08:09.463Z,0
2017-11-05T04:09:19.588Z,0
2017-11-05T04:10:29.400Z,0
2017-11-05T04:11:38.809Z,0
2017-11-05T04:12:48.271Z,0
2017-11-05T04:13:58.823Z,0
2017-11-05T04:15:09.267Z,0
2017-11-05T04:16:19.141Z,0
2017-11-05T04:17:29.641Z,0
2017-11-05T04:18:39.782Z,0
2017-11-05T04:19:49.201Z,0
2017-11-05T04:20:59.609Z,0
2017-11-05T04:22:09.296Z,0
2017-11-05T04:23:19.037Z,0
2017-11-05T04:24:29.078Z,0
2017-11-05T04:25:38.557Z,0
2017-11-05T04:26:48.862Z,0
2017-11-05T04:27:59.397Z,0
2017-11-05T04:29:09.272Z,0
2017-11-05T04:30:19.077Z,0
2017-11-05T04:31:28.948Z,0
2017-11-05T04:32:39.452Z,0
2017-11-05T04:33:49.982Z,0
2017-11-05T04:34:59.796Z,0
2017-11-05T04:36:09.666Z,0
2017-11-05T04:37:20.137Z,0
2017-11-05T04:38:29.871Z,0
2017-11-05T04:39:40.028Z,0
2017-11-05T04:40:50.117Z,0
2017-11-05T04:41:59.917Z,0
2017-11-05T04:43:10.515Z,0
2017-11-05T04:44:20.688Z,0
2017-11-05T04:45:29.806Z,0
2017-11-05T04:46:38.485Z,0
2017-11-05T04:47:48.212Z,0
2017-11-05T04:48:58.351Z,0
2017-11-05T04:50:08.838Z,0
2017-11-05T04:51:18.576Z,0
2017-11-05T04:52:28.357Z,0
2017-11-05T04:53:38.228Z,0
2017-11-05T04:54:47.656Z,0
2017-11-05T04:55:57.037Z,0
2017-11-05T04:57:07.073Z,0
2017-11-05T04:58:16.817Z,0
2017-11-05T04:59:26.906Z,0
2017-11-05T05:00:37.039Z,0
2017-11-05T05:01:47.470Z,0
2017-11-05T05:02:57.189Z,0
2017-11-05T05:04:07.334Z,0
2017-11-05T05:05:17.398Z,0
2017-11-05T05:06:26.757Z,0
2017-11-05T05:07:37.122Z,0
2017-11-05T05:08:46.470Z,0
2017-11-05T05:09:56.166Z,0
2017-11-05T05:11:06.204Z,0
2017-11-05T05:12:15.903Z,0
2017-11-05T05:13:25.602Z,0
2017-11-05T05:14:35.317Z,0
2017-11-05T05:15:45.340Z,0
2017-11-05T05:16:55.349Z,0
2017-11-05T05:18:04.702Z,0
2017-11-05T05:19:14.405Z,0
2017-11-05T05:20:24.460Z,0
2017-11-05T05:21:34.170Z,0
2017-11-05T05:22:43.869Z,0
2017-11-05T05:23:53.908Z,0
2017-11-05T05:25:03.938Z,0
2017-11-05T05:26:13.973Z,0
2017-11-05T05:27:24.009Z,0
2017-11-05T05:28:33.409Z,0
2017-11-05T05:29:43.433Z,0
2017-11-05T05:30:53.460Z,0
2017-11-05T05:32:02.471Z,0
2017-11-05T05:33:11.863Z,0
2017-11-05T05:34:21.329Z,0
2017-11-05T05:35:31.087Z,0
2017-11-05T05:36:41.233Z,0
2017-11-05T05:37:51.375Z,0
2017-11-05T05:39:01.468Z,0
2017-11-05T05:40:11.656Z,0
2017-11-05T05:41:21.840Z,0
2017-11-05T05:42:31.674Z,0
2017-11-05T05:43:41.441Z,0
2017-11-05T05:44:51.936Z,0
2017-11-05T05:46:02.363Z,0
2017-11-05T05:47:12.457Z,0
2017-11-05T05:48:22.535Z,0
2017-11-05T05:49:33.002Z,0
2017-11-05T05:50:43.482Z,0
2017-11-05T05:51:53.605Z,0
2017-11-05T05:53:03.754Z,0
2017-11-05T05:54:13.592Z,0
2017-11-05T05:55:24.053Z,0
2017-11-05T05:56:34.064Z,0
2017-11-05T05:57:44.434Z,0
2017-11-05T05:58:53.777Z,0
2017-11-05T06:00:03.485Z,0
2017-11-05T06:01:13.534Z,0
2017-11-05T06:02:23.283Z,0
2017-11-05T06:03:33.442Z,0
2017-11-05T06:04:43.253Z,0
2017-11-05T06:05:52.737Z,0
2017-11-05T06:07:02.255Z,0
2017-11-05T06:08:12.752Z,0
2017-11-05T06:09:22.609Z,0
2017-11-05T06:10:32.391Z,0
2017-11-05T06:11:41.515Z,0
2017-11-05T06:12:51.275Z,0
2017-11-05T06:14:01.480Z,0
2017-11-05T06:15:11.594Z,0
2017-11-05T06:16:21.646Z,0
2017-11-05T06:17:31.830Z,0
2017-11-05T06:18:41.624Z,0
2017-11-05T06:19:51.107Z,0
2017-11-05T06:21:00.583Z,0
2017-11-05T06:22:10.354Z,0
2017-11-05T06:23:19.464Z,0
2017-11-05T06:24:29.315Z,0
2017-11-05T06:25:39.462Z,0
2017-11-05T06:26:49.018Z,0
2017-11-05T06:27:58.755Z,0
2017-11-05T06:29:08.513Z,0
2017-11-05T06:30:18.236Z,0
2017-11-05T06:31:27.692Z,0
2017-11-05T06:32:38.184Z,0
2017-11-05T06:33:47.541Z,0
2017-11-05T06:34:57.667Z,0
2017-11-05T06:36:08.134Z,0
2017-11-05T06:37:17.924Z,0
2017-11-05T06:38:27.364Z,0
2017-11-05T06:39:36.447Z,0
2017-11-05T06:40:45.913Z,0
2017-11-05T06:41:55.993Z,0
2017-11-05T06:43:06.155Z,0
2017-11-05T06:44:15.927Z,0
2017-11-05T06:45:25.678Z,0
2017-11-05T06:46:35.423Z,0
2017-11-05T06:47:44.845Z,0
2017-11-05T06:48:54.968Z,0
2017-11-05T06:50:04.700Z,0
2017-11-05T06:51:14.757Z,0
2017-11-05T06:52:24.880Z,0
2017-11-05T06:53:34.979Z,0
2017-11-05T06:54:45.360Z,0
2017-11-05T06:55:55.441Z,0
2017-11-05T06:57:05.467Z,0
2017-11-05T06:58:15.165Z,0
2017-11-05T06:59:25.295Z,0
2017-11-05T07:00:35.387Z,0
2017-11-05T07:01:45.155Z,0
2017-11-05T07:02:55.329Z,0
2017-11-05T07:04:05.085Z,0
2017-11-05T07:05:15.196Z,0
2017-11-05T07:06:25.406Z,0
2017-11-05T07:07:35.270Z,0
2017-11-05T07:08:45.491Z,5
2017-11-05T07:09:54.898Z,5
2017-11-05T07:11:05.091Z,5
2017-11-05T07:12:14.895Z,5
2017-11-05T07:13:25.341Z,5
2017-11-05T07:14:35.435Z,5
2017-11-05T07:15:45.568Z,5
2017-11-05T07:16:55.719Z,5
2017-11-05T07:18:05.879Z,10
2017-11-05T07:19:15.340Z,10
2017-11-05T07:20:25.475Z,10
2017-11-05T07:21:35.289Z,10
2017-11-05T07:22:44.649Z,10
2017-11-05T07:23:54.347Z,10
2017-11-05T07:25:04.511Z,10
2017-11-05T07:26:14.275Z,10
2017-11-05T07:27:24.389Z,10
2017-11-05T07:28:34.499Z,10
2017-11-05T07:29:43.951Z,10
2017-11-05T07:30:53.078Z,10
2017-11-05T07:32:03.217Z,10
2017-11-05T07:33:12.703Z,10
2017-11-05T07:34:22.497Z,10
2017-11-05T07:35:32.270Z,10
2017-11-05T07:36:42.055Z,10
2017-11-05T07:37:52.508Z,10
2017-11-05T07:39:02.000Z,10
2017-11-05T07:40:11.460Z,10
2017-11-05T07:41:20.897Z,10
2017-11-05T07:42:30.052Z,10
2017-11-05T07:43:39.905Z,10
2017-11-05T07:44:50.039Z,10
2017-11-05T07:45:59.777Z,10
2017-11-05T07:47:09.285Z,15
2017-11-05T07:48:18.735Z,15
2017-11-05T07:49:28.531Z,15
2017-11-05T07:50:38.629Z,15
2017-11-05T07:51:49.077Z,15
2017-11-05T07:52:59.643Z,15
2017-11-05T07:54:10.140Z,15
2017-11-05T07:55:20.658Z,15
2017-11-05T07:56:30.852Z,15
2017-11-05T07:57:40.688Z,15
2017-11-05T07:58:50.549Z,15
2017-11-05T08:00:00.722Z,15
2017-11-05T08:01:11.173Z,15
2017-11-05T08:02:21.289Z,15
2017-11-05T08:03:31.679Z,15
2017-11-05T08:04:41.118Z,10
2017-11-05T08:05:50.868Z,10
2017-11-05T08:07:00.929Z,10
2017-11-05T08:08:10.002Z,10
2017-11-05T08:09:20.126Z,10
2017-11-05T08:10:29.971Z,10
2017-11-05T08:11:39.822Z,15
2017-11-05T08:12:49.268Z,15
2017-11-05T08:13:58.863Z,15
2017-11-05T08:15:08.030Z,15
2017-11-05T08:16:17.861Z,15
2017-11-05T08:17:28.031Z,15
2017-11-05T08:18:38.198Z,10
2017-11-05T08:19:47.595Z,10
2017-11-05T08:20:57.444Z,10
2017-11-05T08:22:07.895Z,10
2017-11-05T08:23:17.354Z,15
2017-11-05T08:24:27.855Z,15
2017-11-05T08:25:37.303Z,15
2017-11-05T08:26:47.324Z,15
2017-11-05T08:27:56.776Z,15
2017-11-05T08:29:06.896Z,15
2017-11-05T08:30:16.340Z,15
2017-11-05T08:31:26.113Z,15
2017-11-05T08:32:35.555Z,15
2017-11-05T08:33:46.062Z,15
2017-11-05T08:34:56.517Z,20
2017-11-05T08:36:06.246Z,20
2017-11-05T08:37:15.391Z,20
2017-11-05T08:38:25.253Z,20
2017-11-05T08:39:35.447Z,20
2017-11-05T08:40:44.897Z,20
2017-11-05T08:41:55.170Z,20
2017-11-05T08:43:04.651Z,20
2017-11-05T08:44:14.811Z,20
2017-11-05T08:45:24.991Z,20
2017-11-05T08:46:34.818Z,20
2017-11-05T08:47:44.671Z,20
2017-11-05T08:48:54.668Z,20
2017-11-05T08:50:04.831Z,20
2017-11-05T08:51:14.959Z,20
2017-11-05T08:52:25.090Z,20
2017-11-05T08:53:34.634Z,20
2017-11-05T08:54:44.429Z,25
2017-11-05T08:55:54.229Z,25
2017-11-05T08:57:03.994Z,25
2017-11-05T08:58:14.105Z,25
2017-11-05T08:59:23.852Z,25
2017-11-05T09:00:33.597Z,25
2017-11-05T09:01:43.301Z,25
2017-11-05T09:02:53.111Z,25
2017-11-05T09:04:03.244Z,25
2017-11-05T09:05:13.335Z,25
2017-11-05T09:06:23.241Z,30
2017-11-05T09:07:33.382Z,30
2017-11-05T09:08:42.808Z,30
2017-11-05T09:09:52.650Z,30
2017-11-05T09:11:02.818Z,30
2017-11-05T09:12:12.289Z,30
2017-11-05T09:13:22.119Z,25
2017-11-05T09:14:32.685Z,25
2017-11-05T09:15:43.158Z,25
2017-11-05T09:16:53.194Z,25
2017-11-05T09:18:03.224Z,25
2017-11-05T09:19:12.945Z,25
2017-11-05T09:20:23.085Z,25
2017-11-05T09:21:33.233Z,25
2017-11-05T09:22:43.766Z,25
2017-11-05T09:23:53.504Z,30
2017-11-05T09:25:03.928Z,30
2017-11-05T09:26:13.683Z,30
2017-11-05T09:27:23.392Z,30
2017-11-05T09:28:33.451Z,30
2017-11-05T09:29:42.481Z,30
2017-11-05T09:30:52.513Z,30
2017-11-05T09:32:01.862Z,30
2017-11-05T09:33:10.883Z,35
2017-11-05T09:34:20.603Z,35
2017-11-05T09:35:29.973Z,35
2017-11-05T09:36:40.002Z,35
2017-11-05T09:37:49.746Z,35
2017-11-05T09:38:59.844Z,35
2017-11-05T09:40:10.014Z,40
2017-11-05T09:41:20.448Z,40
2017-11-05T09:42:30.488Z,40
2017-11-05T09:43:39.871Z,45
2017-11-05T09:44:49.915Z,50
2017-11-05T09:45:59.710Z,55
2017-11-05T09:47:10.111Z,55
2017-11-05T09:48:19.856Z,60
2017-11-05T09:49:30.286Z,60
2017-11-05T09:50:39.773Z,60
2017-11-05T09:51:49.489Z,60
2017-11-05T09:52:58.858Z,60
2017-11-05T09:54:08.551Z,60
2017-11-05T09:55:18.583Z,60
2017-11-05T09:56:27.971Z,60
2017-11-05T09:57:38.003Z,65
2017-11-05T09:58:47.707Z,65
2017-11-05T09:59:57.077Z,65
2017-11-05T10:01:07.121Z,65
2017-11-05T10:02:16.825Z,65
2017-11-05T10:03:26.892Z,70
2017-11-05T10:04:36.262Z,70
2017-11-05T10:05:46.823Z,70
2017-11-05T10:06:56.886Z,70
2017-11-05T10:08:06.586Z,70
2017-11-05T10:09:16.960Z,70
2017-11-05T10:10:26.657Z,65
2017-11-05T10:11:36.707Z,60
2017-11-05T10:12:45.722Z,50
2017-11-05T10:13:55.075Z,45
2017-11-05T10:15:04.422Z,40
2017-11-05T10:16:14.823Z,40
2017-11-05T10:17:24.239Z,45
2017-11-05T10:18:34.273Z,55
2017-11-05T10:19:44.329Z,60
2017-11-05T10:20:53.704Z,60
2017-11-05T10:22:03.062Z,60
2017-11-05T10:23:13.441Z,65
2017-11-05T10:24:22.473Z,70
2017-11-05T10:25:32.168Z,75
2017-11-05T10:26:41.536Z,75
2017-11-05T10:27:51.585Z,80
2017-11-05T10:29:01.639Z,85
2017-11-05T10:30:11.661Z,85
2017-11-05T10:31:21.684Z,85
2017-11-05T10:32:31.706Z,85
2017-11-05T10:33:41.089Z,85
2017-11-05T10:34:50.793Z,80
2017-11-05T10:36:00.507Z,80
2017-11-05T10:37:10.225Z,75
2017-11-05T10:38:19.908Z,70
2017-11-05T10:39:29.607Z,65
2017-11-05T10:40:39.643Z,60
2017-11-05T10:41:49.347Z,60
2017-11-05T10:42:59.411Z,60
2017-11-05T10:44:09.121Z,60
2017-11-05T10:45:18.815Z,65
2017-11-05T10:46:28.183Z,70
2017-11-05T10:47:37.600Z,75
2017-11-05T10:48:47.670Z,80
2017-11-05T10:49:57.718Z,80
2017-11-05T10:51:07.557Z,80
2017-11-05T10:52:17.995Z,85
2017-11-05T10:53:28.166Z,80
2017-11-05T10:54:38.010Z,80
2017-11-05T10:55:47.053Z,85
2017-11-05T10:56:57.427Z,85
2017-11-05T10:58:06.823Z,85
2017-11-05T10:59:16.957Z,90
2017-11-05T11:00:26.344Z,90
2017-11-05T11:01:35.713Z,90
2017-11-05T11:02:45.739Z,90
2017-11-05T11:03:55.795Z,90
2017-11-05T11:05:05.813Z,90
2017-11-05T11:06:15.840Z,90
2017-11-05T11:07:25.568Z,95
2017-11-05T11:08:34.923Z,95
2017-11-05T11:09:44.636Z,95
2017-11-05T11:10:54.672Z,100
2017-11-05T11:12:04.730Z,100
2017-11-05T11:13:14.094Z,100
2017-11-05T11:14:24.119Z,100
2017-11-05T11:15:34.161Z,100
2017-11-05T11:16:43.512Z,100
2017-11-05T11:17:53.537Z,100
2017-11-05T11:19:03.576Z,100
2017-11-05T11:20:13.592Z,100
2017-11-05T11:21:23.309Z,100
2017-11-05T11:22:32.713Z,105
2017-11-05T11:23:42.400Z,105
2017-11-05T11:24:51.862Z,105
2017-11-05T11:26:01.606Z,110
2017-11-05T11:27:12.053Z,110
2017-11-05T11:28:22.084Z,110
2017-11-05T11:29:32.208Z,110
2017-11-05T11:30:41.910Z,110
2017-11-05T11:31:51.586Z,110
2017-11-05T11:33:01.624Z,110
2017-11-05T11:34:12.026Z,110
2017-11-05T11:35:21.737Z,110
2017-11-05T11:36:31.170Z,110
2017-11-05T11:37:41.229Z,110
2017-11-05T11:38:50.941Z,105
2017-11-05T11:40:00.976Z,110
2017-11-05T11:41:10.671Z,110
2017-11-05T11:42:20.363Z,115
2017-11-05T11:43:29.719Z,110
2017-11-05T11:44:39.135Z,115
2017-11-05T11:45:49.189Z,115
2017-11-05T11:46:58.609Z,115
2017-11-05T11:48:07.356Z,115
2017-11-05T11:49:17.120Z,110
2017-11-05T11:50:27.473Z,110
2017-11-05T11:51:37.235Z,110
2017-11-05T11:52:47.553Z,105
2017-11-05T11:53:57.588Z,105
2017-11-05T11:55:07.332Z,105
2017-11-05T11:56:17.061Z,105
2017-11-05T11:57:27.420Z,105
2017-11-05T11:58:37.453Z,105
2017-11-05T11:59:47.476Z,105
2017-11-05T12:00:57.548Z,105
2017-11-05T12:02:07.615Z,100
2017-11-05T12:03:17.649Z,95
2017-11-05T12:04:28.013Z,95
2017-11-05T12:05:37.364Z,80
2017-11-05T12:06:47.477Z,80
2017-11-05T12:07:57.167Z,80
2017-11-05T12:09:06.618Z,70
2017-11-05T12:10:16.365Z,65
2017-11-05T12:11:26.411Z,55
2017-11-05T12:12:36.910Z,55
2017-11-05T12:13:46.262Z,70
2017-11-05T12:14:56.730Z,55
2017-11-05T12:16:06.527Z,70
2017-11-05T12:17:16.310Z,80
2017-11-05T12:18:25.680Z,105
2017-11-05T12:19:35.891Z,100
2017-11-05T12:20:46.364Z,115
2017-11-05T12:21:56.153Z,120
2017-11-05T12:23:06.206Z,110
2017-11-05T12:24:15.914Z,120
2017-11-05T12:25:25.992Z,105
2017-11-05T12:26:35.700Z,95
2017-11-05T12:27:45.387Z,90
2017-11-05T12:28:55.438Z,90
2017-11-05T12:30:05.467Z,95
2017-11-05T12:31:15.317Z,90
2017-11-05T12:32:24.819Z,100
2017-11-05T12:33:35.211Z,105
2017-11-05T12:34:44.926Z,115
2017-11-05T12:35:54.753Z,105
2017-11-05T12:37:04.927Z,100
2017-11-05T12:38:14.975Z,105
2017-11-05T12:39:25.403Z,110
2017-11-05T12:40:35.449Z,105
2017-11-05T12:41:44.520Z,100
2017-11-05T12:42:54.636Z,95
2017-11-05T12:44:03.684Z,95
2017-11-05T12:45:13.373Z,95
2017-11-05T12:46:23.066Z,95
2017-11-05T12:47:33.091Z,95
2017-11-05T12:48:42.913Z,90
2017-11-05T12:49:52.845Z,85
2017-11-05T12:51:03.244Z,80
2017-11-05T12:52:12.932Z,80
2017-11-05T12:53:22.975Z,85
2017-11-05T12:54:33.042Z,80
2017-11-05T12:55:43.110Z,80
2017-11-05T12:56:53.181Z,70
2017-11-05T12:58:02.538Z,55
2017-11-05T12:59:11.555Z,55
2017-11-05T13:00:20.916Z,55
2017-11-05T13:01:30.996Z,55
2017-11-05T13:02:40.694Z,55
2017-11-05T13:03:50.381Z,55
2017-11-05T13:05:00.416Z,55
2017-11-05T13:06:09.796Z,50
2017-11-05T13:07:19.846Z,50
2017-11-05T13:08:29.536Z,50
2017-11-05T13:09:38.895Z,55
2017-11-05T13:10:48.292Z,60
2017-11-05T13:11:58.674Z,65
2017-11-05T13:13:08.451Z,70
2017-11-05T13:14:18.130Z,70
2017-11-05T13:15:28.198Z,70
2017-11-05T13:16:37.546Z,70
2017-11-05T13:17:47.915Z,75
2017-11-05T13:18:58.022Z,70
2017-11-05T13:20:08.087Z,70
2017-11-05T13:21:18.467Z,80
2017-11-05T13:22:28.184Z,80
2017-11-05T13:23:37.889Z,80
2017-11-05T13:24:47.948Z,70
2017-11-05T13:25:57.337Z,70
2017-11-05T13:27:07.037Z,85
2017-11-05T13:28:16.387Z,90
2017-11-05T13:29:26.453Z,75
2017-11-05T13:30:36.172Z,75
2017-11-05T13:31:46.214Z,80
2017-11-05T13:32:55.235Z,80
2017-11-05T13:34:04.957Z,80
2017-11-05T13:35:15.016Z,80
2017-11-05T13:36:25.420Z,80
2017-11-05T13:37:35.123Z,75
2017-11-05T13:38:44.826Z,75
2017-11-05T13:39:54.868Z,70
2017-11-05T13:41:04.903Z,75
2017-11-05T13:42:14.609Z,75
2017-11-05T13:43:24.386Z,75
2017-11-05T13:44:34.423Z,75
2017-11-05T13:45:44.491Z,75
2017-11-05T13:46:54.542Z,65
2017-11-05T13:48:03.566Z,60
2017-11-05T13:49:12.588Z,50
2017-11-05T13:50:22.948Z,50
2017-11-05T13:51:33.032Z,40
2017-11-05T13:52:43.095Z,40
2017-11-05T13:53:52.445Z,40
2017-11-05T13:55:02.495Z,40
2017-11-05T13:56:11.875Z,35
2017-11-05T13:57:22.257Z,35
2017-11-05T13:58:32.088Z,30
2017-11-05T13:59:41.131Z,25
2017-11-05T14:00:50.836Z,20
2017-11-05T14:02:00.524Z,15
2017-11-05T14:03:10.225Z,15
2017-11-05T14:04:20.270Z,10
2017-11-05T14:05:30.306Z,10
2017-11-05T14:06:40.339Z,10
2017-11-05T14:07:49.733Z,5
2017-11-05T14:09:00.163Z,5
2017-11-05T14:10:10.574Z,5
2017-11-05T14:11:20.294Z,5
2017-11-05T14:12:30.335Z,5
2017-11-05T14:13:40.050Z,5
2017-11-05T14:14:50.085Z,5
2017-11-05T14:16:00.524Z,5
2017-11-05T14:17:09.876Z,5
2017-11-05T14:18:19.951Z,5
2017-11-05T14:19:29.683Z,5
2017-11-05T14:20:39.707Z,5
2017-11-05T14:21:49.096Z,5
2017-11-05T14:22:59.468Z,5
2017-11-05T14:24:09.170Z,5
2017-11-05T14:25:18.899Z,5
2017-11-05T14:26:28.250Z,5
2017-11-05T14:27:37.642Z,5
2017-11-05T14:28:47.378Z,5
2017-11-05T14:29:57.783Z,5
2017-11-05T14:31:08.170Z,5
2017-11-05T14:32:17.901Z,5
2017-11-05T14:33:27.603Z,5
2017-11-05T14:34:37.367Z,5
2017-11-05T14:35:47.085Z,5
2017-11-05T14:36:57.469Z,5
2017-11-05T14:38:07.508Z,10
2017-11-05T14:39:17.577Z,10
2017-11-05T14:40:27.288Z,10
2017-11-05T14:41:37.344Z,10
2017-11-05T14:42:47.024Z,10
2017-11-05T14:43:57.103Z,10
2017-11-05T14:45:06.119Z,15
2017-11-05T14:46:15.509Z,20
2017-11-05T14:47:25.220Z,20
2017-11-05T14:48:35.282Z,20
2017-11-05T14:49:44.963Z,20
2017-11-05T14:50:54.648Z,20
2017-11-05T14:52:04.356Z,20
2017-11-05T14:53:14.432Z,20
2017-11-05T14:54:24.470Z,20
2017-11-05T14:55:33.852Z,20
2017-11-05T14:56:43.252Z,20
2017-11-05T14:57:52.632Z,15
2017-11-05T14:59:03.036Z,15
2017-11-05T15:00:12.748Z,10
2017-11-05T15:01:22.448Z,10
2017-11-05T15:02:32.155Z,10
2017-11-05T15:03:41.537Z,10
2017-11-05T15:04:50.568Z,10
2017-11-05T15:06:00.273Z,10
2017-11-05T15:07:09.620Z,10
2017-11-05T15:08:19.326Z,10
2017-11-05T15:09:29.015Z,10
2017-11-05T15:10:39.034Z,10
2017-11-05T15:11:48.735Z,5
2017-11-05T15:12:58.437Z,5
2017-11-05T15:14:07.806Z,5
2017-11-05T15:15:17.842Z,5
2017-11-05T15:16:27.849Z,5
2017-11-05T15:17:37.876Z,5
2017-11-05T15:18:47.947Z,5
2017-11-05T15:19:57.627Z,0
2017-11-05T15:21:06.666Z,0
2017-11-05T15:22:16.397Z,0
2017-11-05T15:23:26.801Z,0
2017-11-05T15:24:36.829Z,0
2017-11-05T15:25:46.568Z,0
2017-11-05T15:26:56.592Z,0
2017-11-05T15:28:06.305Z,0
2017-11-05T15:29:16.342Z,0
2017-11-05T15:30:25.689Z,0
2017-11-05T15:31:35.396Z,0
2017-11-05T15:32:45.774Z,0
2017-11-05T15:33:55.807Z,0
2017-11-05T15:35:06.219Z,0
2017-11-05T15:36:15.932Z,0
2017-11-05T15:37:25.620Z,0
2017-11-05T15:38:35.741Z,0
2017-11-05T15:39:45.820Z,0
2017-11-05T15:40:55.854Z,0
2017-11-05T15:42:05.249Z,0
2017-11-05T15:43:14.279Z,0
2017-11-05T15:44:23.663Z,0
2017-11-05T15:45:33.036Z,0
2017-11-05T15:46:43.101Z,0
2017-11-05T15:47:52.800Z,0
2017-11-05T15:49:03.493Z,0
2017-11-05T15:50:13.278Z,0
2017-11-05T15:51:23.066Z,0
2017-11-05T15:52:33.127Z,0
2017-11-05T15:53:43.227Z,0
2017-11-05T15:54:52.925Z,0
2017-11-05T15:56:03.004Z,0
2017-11-05T15:57:12.761Z,0
2017-11-05T15:58:22.892Z,0
2017-11-05T15:59:33.000Z,0
2017-11-05T16:00:43.076Z,0
2017-11-05T16:01:52.843Z,0
2017-11-05T16:03:02.239Z,0
2017-11-05T16:04:12.331Z,0
2017-11-05T16:05:22.440Z,0
2017-11-05T16:06:31.828Z,0
2017-11-05T16:07:42.303Z,0
2017-11-05T16:08:52.066Z,0
2017-11-05T16:10:01.793Z,0
2017-11-05T16:11:10.859Z,0
2017-11-05T16:12:20.251Z,0
2017-11-05T16:13:30.310Z,0
2017-11-05T16:14:39.341Z,0
2017-11-05T16:15:48.366Z,0
2017-11-05T16:16:57.736Z,0
2017-11-05T16:18:07.473Z,0
2017-11-05T16:19:17.218Z,0
2017-11-05T16:20:26.908Z,0
2017-11-05T16:21:36.321Z,0
2017-11-05T16:22:46.040Z,0
2017-11-05T16:23:55.432Z,0
2017-11-05T16:25:05.519Z,0
2017-11-05T16:26:15.543Z,0
2017-11-05T16:27:25.246Z,0
2017-11-05T16:28:35.001Z,0
2017-11-05T16:29:44.717Z,0
2017-11-05T16:30:55.177Z,0
2017-11-05T16:32:05.597Z,0
2017-11-05T16:33:15.311Z,0
2017-11-05T16:34:25.037Z,0
2017-11-05T16:35:34.751Z,0
2017-11-05T16:36:44.805Z,0
2017-11-05T16:37:55.200Z,0
2017-11-05T16:39:05.601Z,0
2017-11-05T16:40:15.329Z,0
2017-11-05T16:41:25.083Z,0
2017-11-05T16:42:34.966Z,0
2017-11-05T16:43:45.041Z,0
2017-11-05T16:44:55.214Z,0
2017-11-05T16:46:05.667Z,0
2017-11-05T16:47:15.410Z,0
2017-11-05T16:48:25.839Z,0
2017-11-05T16:49:35.926Z,0
2017-11-05T16:50:45.641Z,0
2017-11-05T16:51:55.371Z,0
2017-11-05T16:53:05.129Z,0